createdAt,value
2023-02-02T00:00:27.945Z,93.13
2023-02-02T00:02:54.919Z,91.91
2023-02-02T00:05:22.241Z,90.01
2023-02-02T00:07:49.266Z,89.32
2023-02-02T00:10:16.413Z,88.87
2023-02-02T00:12:43.212Z,88.94
2023-02-02T00:15:11.014Z,88.79
2023-02-02T00:17:38.179Z,87.85
2023-02-02T00:20:05.342Z,88.60
2023-02-02T00:22:32.319Z,88.52
2023-02-02T00:24:59.121Z,89.40
2023-02-02T00:27:25.891Z,89.60
2023-02-02T00:29:53.786Z,89.71
2023-02-02T00:32:20.807Z,90.33
2023-02-02T00:34:47.648Z,89.56
2023-02-02T00:37:14.479Z,90.06
2023-02-02T00:39:41.587Z,89.90
2023-02-02T00:42:11.639Z,88.98
2023-02-02T00:44:57.041Z,88.53
2023-02-02T00:47:23.839Z,89.19
2023-02-02T00:49:50.780Z,89.23
2023-02-02T00:52:17.596Z,89.24
2023-02-02T00:54:44.441Z,88.85
2023-02-02T00:57:14.743Z,89.05
2023-02-02T00:59:42.409Z,89.09
2023-02-02T01:02:12.995Z,89.53
2023-02-02T01:04:40.156Z,87.93
2023-02-02T01:07:07.059Z,83.77
2023-02-02T01:09:33.953Z,84.62
2023-02-02T01:12:00.726Z,85.38
2023-02-02T01:14:27.656Z,84.84
2023-02-02T01:16:54.503Z,84.79
2023-02-02T01:19:21.355Z,84.60
2023-02-02T01:21:48.615Z,85.52
2023-02-02T01:24:15.462Z,85.04
2023-02-02T01:26:42.433Z,85.57
2023-02-02T01:29:09.320Z,86.10
2023-02-02T01:31:36.328Z,86.36
2023-02-02T01:34:03.210Z,87.32
2023-02-02T01:36:30.098Z,88.28
2023-02-02T01:38:57.263Z,88.77
2023-02-02T01:41:25.748Z,88.87
2023-02-02T01:43:58.137Z,88.34
2023-02-02T01:46:29.242Z,88.04
2023-02-02T01:48:55.962Z,87.99
2023-02-02T01:51:31.480Z,87.31
2023-02-02T01:53:59.549Z,86.69
2023-02-02T01:56:30.645Z,87.31
2023-02-02T01:58:58.700Z,87.47
2023-02-02T02:01:26.166Z,88.01
2023-02-02T02:03:53.083Z,88.75
2023-02-02T02:06:20.516Z,88.87
2023-02-02T02:09:03.540Z,88.32
2023-02-02T02:11:32.617Z,88.38
2023-02-02T02:14:23.263Z,88.48
2023-02-02T02:16:56.024Z,88.68
2023-02-02T02:20:05.934Z,88.07
2023-02-02T02:23:16.142Z,87.88
2023-02-02T02:26:36.131Z,88.04
2023-02-02T02:29:27.241Z,88.78
2023-02-02T02:32:20.007Z,88.05
2023-02-02T02:35:18.269Z,89.01
2023-02-02T02:37:54.201Z,88.88
2023-02-02T02:40:42.924Z,88.40
2023-02-02T02:43:23.658Z,88.82
2023-02-02T02:45:50.878Z,88.53
2023-02-02T02:48:18.058Z,88.48
2023-02-02T02:50:45.140Z,88.28
2023-02-02T02:53:16.501Z,88.20
2023-02-02T02:55:53.703Z,88.05
2023-02-02T02:58:36.472Z,88.33
2023-02-02T03:01:34.297Z,88.76
2023-02-02T03:04:11.110Z,88.91
2023-02-02T03:06:53.124Z,89.48
2023-02-02T03:09:23.605Z,88.60
2023-02-02T03:11:50.596Z,87.83
2023-02-02T03:14:17.538Z,88.04
2023-02-02T03:16:44.361Z,88.93
2023-02-02T03:19:11.231Z,87.98
2023-02-02T03:21:38.080Z,87.51
2023-02-02T03:24:05.207Z,88.27
2023-02-02T03:26:32.093Z,88.90
2023-02-02T03:29:00.435Z,88.70
2023-02-02T03:31:27.819Z,88.57
2023-02-02T03:33:55.384Z,87.07
2023-02-02T03:36:23.035Z,87.01
2023-02-02T03:38:49.918Z,88.30
2023-02-02T03:41:16.778Z,89.00
2023-02-02T03:43:43.683Z,88.95
2023-02-02T03:46:10.715Z,89.12
2023-02-02T03:48:38.745Z,88.93
2023-02-02T03:51:07.682Z,88.76
2023-02-02T03:53:34.662Z,89.31
2023-02-02T03:56:01.477Z,88.67
2023-02-02T03:58:28.598Z,88.42
2023-02-02T04:01:00.305Z,89.25
2023-02-02T04:03:27.117Z,89.61
2023-02-02T04:05:53.962Z,89.76
2023-02-02T04:08:20.830Z,88.94
2023-02-02T04:10:47.728Z,88.89
2023-02-02T04:13:14.705Z,89.38
2023-02-02T04:15:41.574Z,90.01
2023-02-02T04:18:08.393Z,89.45
2023-02-02T04:20:35.553Z,89.53
2023-02-02T04:23:02.601Z,89.67
2023-02-02T04:25:29.443Z,89.40
2023-02-02T04:27:56.607Z,89.85
2023-02-02T04:30:23.427Z,89.83
2023-02-02T04:32:51.575Z,89.96
2023-02-02T04:35:18.387Z,89.71
2023-02-02T04:37:45.249Z,89.67
2023-02-02T04:40:13.093Z,89.52
2023-02-02T04:42:39.929Z,88.76
2023-02-02T04:45:07.274Z,88.87
2023-02-02T04:47:34.176Z,88.91
2023-02-02T04:50:00.977Z,88.62
2023-02-02T04:52:29.221Z,88.88
2023-02-02T04:54:56.028Z,88.37
2023-02-02T04:57:22.881Z,88.36
2023-02-02T04:59:49.990Z,86.92
2023-02-02T05:02:16.812Z,86.62
2023-02-02T05:04:43.740Z,86.77
2023-02-02T05:07:10.590Z,86.93
2023-02-02T05:09:37.560Z,87.55
2023-02-02T05:12:05.234Z,87.31
2023-02-02T05:14:32.299Z,88.12
2023-02-02T05:16:59.456Z,87.94
2023-02-02T05:19:26.466Z,88.16
2023-02-02T05:21:54.720Z,88.46
2023-02-02T05:24:21.962Z,88.67
2023-02-02T05:26:48.952Z,88.44
2023-02-02T05:29:15.844Z,88.46
2023-02-02T05:31:42.825Z,88.45
2023-02-02T05:34:11.539Z,88.54
2023-02-02T05:36:38.529Z,88.43
2023-02-02T05:39:05.676Z,88.73
2023-02-02T05:41:32.698Z,89.12
2023-02-02T05:44:00.366Z,89.12
2023-02-02T05:46:27.342Z,89.51
2023-02-02T05:48:54.510Z,89.29
2023-02-02T05:51:28.862Z,90.02
2023-02-02T05:53:55.709Z,89.76
2023-02-02T05:56:22.611Z,89.58
2023-02-02T05:58:49.954Z,89.93
2023-02-02T06:01:18.454Z,90.28
2023-02-02T06:03:45.417Z,90.17
2023-02-02T06:06:13.071Z,90.01
2023-02-02T06:08:40.023Z,90.06
2023-02-02T06:11:15.054Z,89.89
2023-02-02T06:13:43.334Z,90.12
2023-02-02T06:16:11.711Z,89.44
2023-02-02T06:18:38.834Z,89.36
2023-02-02T06:21:06.893Z,89.54
2023-02-02T06:23:33.944Z,89.81
2023-02-02T06:26:00.842Z,89.20
2023-02-02T06:28:27.920Z,89.09
2023-02-02T06:30:54.843Z,89.16
2023-02-02T06:33:21.785Z,88.99
2023-02-02T06:35:48.733Z,89.03
2023-02-02T06:38:15.666Z,88.77
2023-02-02T06:40:42.549Z,88.75
2023-02-02T06:43:09.387Z,85.38
2023-02-02T06:45:40.166Z,82.10
2023-02-02T06:48:11.131Z,81.40
2023-02-02T06:50:38.480Z,80.23
2023-02-02T06:53:06.212Z,77.99
2023-02-02T06:55:33.301Z,76.20
2023-02-02T06:58:01.147Z,73.89
2023-02-02T07:00:29.116Z,73.80
2023-02-02T07:02:56.374Z,74.46
2023-02-02T07:05:29.293Z,75.86
2023-02-02T07:07:57.317Z,76.21
2023-02-02T07:11:13.924Z,77.11
2023-02-02T07:13:11.200Z,77.89
2023-02-02T07:15:41.302Z,79.61
2023-02-02T07:18:08.171Z,80.24
2023-02-02T07:20:35.016Z,78.89
2023-02-02T07:23:04.514Z,76.85
2023-02-02T07:25:31.983Z,79.52
2023-02-02T07:27:58.855Z,81.01
2023-02-02T07:30:29.772Z,82.39
2023-02-02T07:32:57.428Z,82.55
2023-02-02T07:35:24.938Z,82.61
2023-02-02T07:37:56.051Z,82.52
2023-02-02T07:40:23.063Z,83.25
2023-02-02T07:42:49.955Z,82.82
2023-02-02T07:45:24.665Z,82.37
2023-02-02T07:47:58.651Z,82.30
2023-02-02T07:50:26.418Z,82.62
2023-02-02T07:52:53.758Z,83.15
2023-02-02T07:55:21.224Z,82.87
2023-02-02T07:57:48.305Z,83.35
2023-02-02T08:00:15.420Z,83.52
2023-02-02T08:02:42.361Z,83.74
2023-02-02T08:05:10.027Z,83.86
2023-02-02T08:07:36.922Z,83.74
2023-02-02T08:10:04.447Z,83.71
2023-02-02T08:12:31.572Z,83.05
2023-02-02T08:14:59.113Z,82.73
2023-02-02T08:17:26.049Z,82.88
2023-02-02T08:19:53.094Z,82.97
2023-02-02T08:22:20.457Z,82.98
2023-02-02T08:24:48.075Z,82.94
2023-02-02T08:27:16.484Z,82.60
2023-02-02T08:29:43.700Z,82.60
2023-02-02T08:32:10.605Z,82.48
2023-02-02T08:34:37.642Z,82.41
2023-02-02T08:37:04.690Z,82.52
2023-02-02T08:39:31.594Z,82.43
2023-02-02T08:41:58.558Z,82.40
2023-02-02T08:44:26.927Z,82.65
2023-02-02T08:46:55.011Z,82.34
2023-02-02T08:49:21.953Z,82.21
2023-02-02T08:51:48.846Z,82.51
2023-02-02T08:54:16.644Z,82.09
2023-02-02T08:56:43.462Z,82.10
2023-02-02T08:59:10.316Z,82.39
2023-02-02T09:01:37.605Z,82.26
2023-02-02T09:04:08.934Z,82.05
2023-02-02T09:06:38.314Z,80.50
2023-02-02T09:09:09.520Z,80.45
2023-02-02T09:11:37.248Z,80.56
2023-02-02T09:14:06.589Z,80.18
2023-02-02T09:16:34.923Z,79.67
2023-02-02T09:19:02.391Z,78.85
2023-02-02T09:21:29.582Z,78.39
2023-02-02T09:23:56.806Z,77.59
2023-02-02T09:26:28.684Z,78.45
2023-02-02T09:29:03.727Z,78.74
2023-02-02T09:31:33.801Z,77.88
2023-02-02T09:34:08.456Z,77.47
2023-02-02T09:36:35.633Z,77.07
2023-02-02T09:39:02.711Z,75.86
2023-02-02T09:41:38.679Z,75.78
2023-02-02T09:44:39.841Z,75.76
2023-02-02T09:47:25.359Z,75.80
2023-02-02T09:50:11.105Z,74.77
2023-02-02T09:52:44.286Z,74.87
2023-02-02T09:55:36.065Z,74.50
2023-02-02T09:58:27.235Z,73.91
2023-02-02T10:01:15.739Z,73.97
2023-02-02T10:03:45.715Z,73.40
2023-02-02T10:06:39.091Z,73.29
2023-02-02T10:09:25.216Z,72.32
2023-02-02T10:12:21.459Z,72.74
2023-02-02T10:15:17.797Z,72.70
2023-02-02T10:18:05.641Z,72.57
2023-02-02T10:20:52.743Z,72.55
2023-02-02T10:23:31.533Z,71.97
2023-02-02T10:26:04.103Z,72.01
2023-02-02T10:28:41.395Z,71.79
2023-02-02T10:31:20.107Z,70.66
2023-02-02T10:33:55.640Z,70.95
2023-02-02T10:36:32.098Z,70.43
2023-02-02T10:39:17.556Z,70.65
2023-02-02T10:42:00.771Z,69.05
2023-02-02T10:44:42.038Z,69.32
2023-02-02T10:47:13.371Z,69.22
2023-02-02T10:49:41.115Z,69.47
2023-02-02T10:52:13.470Z,68.89
2023-02-02T10:54:57.277Z,69.59
2023-02-02T10:58:03.332Z,70.52
2023-02-02T11:00:35.958Z,69.60
2023-02-02T11:03:04.853Z,69.57
2023-02-02T11:05:50.905Z,69.94
2023-02-02T11:08:34.572Z,69.92
2023-02-02T11:11:23.875Z,70.17
2023-02-02T11:14:18.908Z,70.07
2023-02-02T11:16:46.608Z,71.10
2023-02-02T11:19:22.528Z,71.15
2023-02-02T11:21:56.700Z,70.73
2023-02-02T11:24:36.818Z,71.38
2023-02-02T11:27:12.083Z,70.88
2023-02-02T11:29:39.558Z,71.11
2023-02-02T11:32:33.863Z,71.00
2023-02-02T11:35:06.618Z,70.38
2023-02-02T11:37:35.127Z,70.05
2023-02-02T11:40:26.141Z,69.87
2023-02-02T11:42:53.828Z,70.68
2023-02-02T11:45:30.718Z,69.96
2023-02-02T11:48:21.596Z,70.60
2023-02-02T11:50:51.157Z,69.87
2023-02-02T11:53:29.702Z,69.08
2023-02-02T11:55:58.060Z,69.32
2023-02-02T11:58:27.750Z,69.37
2023-02-02T12:00:58.078Z,67.90
2023-02-02T12:03:29.143Z,69.02
2023-02-02T12:05:56.301Z,68.77
2023-02-02T12:08:23.936Z,69.30
2023-02-02T12:11:02.259Z,68.27
2023-02-02T12:14:19.842Z,67.95
2023-02-02T12:17:13.512Z,68.41
2023-02-02T12:20:09.720Z,69.02
2023-02-02T12:22:51.578Z,68.70
2023-02-02T12:25:53.770Z,69.74
2023-02-02T12:28:42.352Z,69.93
2023-02-02T12:31:18.413Z,69.74
2023-02-02T12:34:06.517Z,69.61
2023-02-02T12:37:04.375Z,70.17
2023-02-02T12:39:43.287Z,69.74
2023-02-02T12:42:15.864Z,69.67
2023-02-02T12:45:08.443Z,69.17
2023-02-02T12:47:55.551Z,68.92
2023-02-02T12:50:31.447Z,69.60
2023-02-02T12:53:26.041Z,69.53
2023-02-02T12:56:20.764Z,68.97
2023-02-02T12:59:23.289Z,69.14
2023-02-02T13:02:12.205Z,69.18
2023-02-02T13:05:05.001Z,69.48
2023-02-02T13:07:40.646Z,69.92
2023-02-02T13:10:11.669Z,69.56
2023-02-02T13:12:44.371Z,69.87
2023-02-02T13:15:19.565Z,69.94
2023-02-02T13:18:11.541Z,70.27
2023-02-02T13:20:38.636Z,69.54
2023-02-02T13:23:27.805Z,69.75
2023-02-02T13:26:13.413Z,70.36
2023-02-02T13:28:45.642Z,70.62
2023-02-02T13:31:40.368Z,70.79
2023-02-02T13:34:29.010Z,70.98
2023-02-02T13:37:04.148Z,70.59
2023-02-02T13:39:37.373Z,70.32
2023-02-02T13:42:16.877Z,71.86
2023-02-02T13:44:50.205Z,70.93
2023-02-02T13:47:22.608Z,72.20
2023-02-02T13:49:54.395Z,72.44
2023-02-02T13:52:49.319Z,72.37
2023-02-02T13:55:21.002Z,72.42
2023-02-02T13:58:12.767Z,72.42
2023-02-02T14:00:52.125Z,72.44
2023-02-02T14:03:18.906Z,72.33
2023-02-02T14:06:17.802Z,72.59
2023-02-02T14:09:02.047Z,72.55
2023-02-02T14:11:29.973Z,72.17
2023-02-02T14:14:33.278Z,72.48
2023-02-02T14:17:08.563Z,72.74
2023-02-02T14:19:35.392Z,72.66
2023-02-02T14:22:21.263Z,72.52
2023-02-02T14:24:50.356Z,72.43
2023-02-02T14:27:17.217Z,72.81
2023-02-02T14:29:46.555Z,72.12
2023-02-02T14:32:29.313Z,72.00
2023-02-02T14:34:58.104Z,73.01
2023-02-02T14:37:25.275Z,72.70
2023-02-02T14:40:07.247Z,71.99
2023-02-02T14:43:46.451Z,72.70
2023-02-02T14:46:13.365Z,72.64
2023-02-02T14:48:46.770Z,71.89
2023-02-02T14:51:15.970Z,72.53
2023-02-02T14:53:49.627Z,72.08
2023-02-02T14:56:17.699Z,72.70
2023-02-02T14:58:54.006Z,73.11
2023-02-02T15:01:23.670Z,73.59
2023-02-02T15:04:25.952Z,73.97
2023-02-02T15:06:53.438Z,73.79
2023-02-02T15:09:20.460Z,73.29
2023-02-02T15:12:01.686Z,73.86
2023-02-02T15:14:52.981Z,73.46
2023-02-02T15:17:41.710Z,73.48
2023-02-02T15:20:23.565Z,73.92
2023-02-02T15:23:02.706Z,74.80
2023-02-02T15:25:48.704Z,74.12
2023-02-02T15:28:41.432Z,75.00
2023-02-02T15:31:19.123Z,75.00
2023-02-02T15:33:52.662Z,75.32
2023-02-02T15:36:25.700Z,75.29
2023-02-02T15:38:55.383Z,75.20
2023-02-02T15:41:28.006Z,75.07
2023-02-02T15:43:55.131Z,75.86
2023-02-02T15:46:28.532Z,76.06
2023-02-02T15:49:32.697Z,76.36
2023-02-02T15:52:01.830Z,76.27
2023-02-02T15:54:31.645Z,76.56
2023-02-02T15:57:03.343Z,77.09
2023-02-02T15:59:39.427Z,77.06
2023-02-02T16:02:06.388Z,77.26
2023-02-02T16:04:42.626Z,77.32
2023-02-02T16:07:17.495Z,77.92
2023-02-02T16:09:44.557Z,78.04
2023-02-02T16:12:25.013Z,78.36
2023-02-02T16:14:54.079Z,78.10
2023-02-02T16:17:28.962Z,78.60
2023-02-02T16:20:08.532Z,78.79
2023-02-02T16:22:37.193Z,79.13
2023-02-02T16:25:09.857Z,79.52
2023-02-02T16:27:37.793Z,79.36
2023-02-02T16:30:07.715Z,79.50
2023-02-02T16:32:37.210Z,79.64
2023-02-02T16:35:06.819Z,79.08
2023-02-02T16:37:36.430Z,78.88
2023-02-02T16:40:27.046Z,78.65
2023-02-02T16:43:13.925Z,78.66
2023-02-02T16:45:55.364Z,79.47
2023-02-02T16:48:35.998Z,79.41
2023-02-02T16:51:17.915Z,80.60
2023-02-02T16:53:47.614Z,81.94
2023-02-02T16:56:31.180Z,83.19
2023-02-02T16:59:00.487Z,84.65
2023-02-02T17:01:39.665Z,84.79
2023-02-02T17:04:08.979Z,85.50
2023-02-02T17:06:51.451Z,85.46
2023-02-02T17:09:32.438Z,84.45
2023-02-02T17:12:32.072Z,84.19
2023-02-02T17:15:05.665Z,84.12
2023-02-02T17:17:32.844Z,82.91
2023-02-02T17:20:00.578Z,83.13
2023-02-02T17:22:27.921Z,82.61
2023-02-02T17:24:54.812Z,81.68
2023-02-02T17:27:27.625Z,81.28
2023-02-02T17:29:54.760Z,81.90
2023-02-02T17:32:21.696Z,82.21
2023-02-02T17:34:48.576Z,82.01
2023-02-02T17:37:15.515Z,82.14
2023-02-02T17:39:42.647Z,82.39
2023-02-02T17:42:23.119Z,82.76
2023-02-02T17:44:50.064Z,82.37
2023-02-02T17:47:17.197Z,82.36
2023-02-02T17:49:44.214Z,82.85
2023-02-02T17:52:14.953Z,83.14
2023-02-02T17:54:44.759Z,83.72
2023-02-02T17:57:11.743Z,84.16
2023-02-02T17:59:38.689Z,83.88
2023-02-02T18:02:05.637Z,84.52
2023-02-02T18:04:32.553Z,84.55
2023-02-02T18:06:59.633Z,84.25
2023-02-02T18:09:28.137Z,83.88
2023-02-02T18:11:55.239Z,83.69
2023-02-02T18:14:22.178Z,84.00
2023-02-02T18:16:49.220Z,84.35
2023-02-02T18:19:16.381Z,84.65
2023-02-02T18:21:44.891Z,84.48
2023-02-02T18:24:17.204Z,84.60
2023-02-02T18:26:44.179Z,84.38
2023-02-02T18:29:11.290Z,84.39
2023-02-02T18:31:42.166Z,84.10
2023-02-02T18:34:09.572Z,84.05
2023-02-02T18:36:36.967Z,83.78
2023-02-02T18:39:04.111Z,83.54
2023-02-02T18:41:31.250Z,82.66
2023-02-02T18:43:58.295Z,82.51
2023-02-02T18:46:26.816Z,83.09
2023-02-02T18:48:55.145Z,83.32
2023-02-02T18:51:22.180Z,83.46
2023-02-02T18:53:49.573Z,83.62
2023-02-02T18:56:17.842Z,84.01
2023-02-02T18:58:44.818Z,84.26
2023-02-02T19:01:14.314Z,84.31
2023-02-02T19:03:44.774Z,84.60
2023-02-02T19:06:30.311Z,84.71
2023-02-02T19:08:57.743Z,84.86
2023-02-02T19:11:28.569Z,85.17
2023-02-02T19:13:56.076Z,85.19
2023-02-02T19:16:28.858Z,85.17
2023-02-02T19:18:57.947Z,85.08
2023-02-02T19:21:25.859Z,85.57
2023-02-02T19:23:53.234Z,85.18
2023-02-02T19:26:25.933Z,84.71
2023-02-02T19:28:54.801Z,84.64
2023-02-02T19:31:22.114Z,84.42
2023-02-02T19:33:50.722Z,84.37
2023-02-02T19:36:24.369Z,84.89
2023-02-02T19:39:05.374Z,84.87
2023-02-02T19:41:32.452Z,84.99
2023-02-02T19:44:02.380Z,85.12
2023-02-02T19:46:30.224Z,84.94
2023-02-02T19:49:18.677Z,85.03
2023-02-02T19:51:55.929Z,84.64
2023-02-02T19:54:47.999Z,84.86
2023-02-02T19:57:25.399Z,85.14
2023-02-02T19:59:52.985Z,85.11
2023-02-02T20:02:26.510Z,85.29
2023-02-02T20:05:03.677Z,85.76
2023-02-02T20:07:31.117Z,85.74
2023-02-02T20:10:23.264Z,86.07
2023-02-02T20:12:51.638Z,86.55
2023-02-02T20:15:29.024Z,86.52
2023-02-02T20:17:58.319Z,86.72
2023-02-02T20:20:33.871Z,87.16
2023-02-02T20:23:02.283Z,87.27
2023-02-02T20:25:32.313Z,87.78
2023-02-02T20:28:07.401Z,87.98
2023-02-02T20:30:38.128Z,88.10
2023-02-02T20:33:23.506Z,88.12
2023-02-02T20:35:51.205Z,88.23
2023-02-02T20:38:21.806Z,88.62
2023-02-02T20:40:49.153Z,88.90
2023-02-02T20:43:16.115Z,88.87
2023-02-02T20:45:44.112Z,89.19
2023-02-02T20:48:12.390Z,89.46
2023-02-02T20:50:41.989Z,89.67
2023-02-02T20:53:09.911Z,89.87
2023-02-02T20:55:37.069Z,89.95
2023-02-02T20:58:04.729Z,89.85
2023-02-02T21:00:32.028Z,90.13
2023-02-02T21:02:58.826Z,90.39
2023-02-02T21:05:26.220Z,90.70
2023-02-02T21:07:55.013Z,90.38
2023-02-02T21:10:23.464Z,90.86
2023-02-02T21:12:51.943Z,91.18
2023-02-02T21:15:19.233Z,91.27
2023-02-02T21:17:46.144Z,91.49
2023-02-02T21:20:14.574Z,91.38
2023-02-02T21:22:41.932Z,91.81
2023-02-02T21:25:09.533Z,91.74
2023-02-02T21:27:41.552Z,91.62
2023-02-02T21:30:10.909Z,91.88
2023-02-02T21:32:37.897Z,91.93
2023-02-02T21:35:06.377Z,92.03
2023-02-02T21:37:35.378Z,92.10
2023-02-02T21:40:08.078Z,92.20
2023-02-02T21:42:35.676Z,92.21
2023-02-02T21:45:28.497Z,91.91
2023-02-02T21:48:01.590Z,91.73
2023-02-02T21:50:41.078Z,91.73
2023-02-02T21:53:22.884Z,91.63
2023-02-02T21:56:00.177Z,91.81
2023-02-02T21:58:33.875Z,91.84
2023-02-02T22:01:29.806Z,91.88
2023-02-02T22:03:56.764Z,92.05
2023-02-02T22:06:36.848Z,92.17
2023-02-02T22:09:17.075Z,92.50
2023-02-02T22:11:52.705Z,92.28
2023-02-02T22:14:22.189Z,92.49
2023-02-02T22:16:54.032Z,92.64
2023-02-02T22:19:25.204Z,92.81
2023-02-02T22:21:54.033Z,92.99
2023-02-02T22:24:21.237Z,93.20
2023-02-02T22:26:48.381Z,93.21
2023-02-02T22:29:17.907Z,93.48
2023-02-02T22:31:44.828Z,93.91
2023-02-02T22:34:11.746Z,93.69
2023-02-02T22:36:38.596Z,93.44
2023-02-02T22:39:05.507Z,93.53
2023-02-02T22:41:32.601Z,93.46
2023-02-02T22:43:59.564Z,93.32
2023-02-02T22:46:26.554Z,93.26
2023-02-02T22:48:53.443Z,93.30
2023-02-02T22:51:20.345Z,93.07
2023-02-02T22:53:47.286Z,92.74
2023-02-02T22:56:15.483Z,93.01
2023-02-02T22:58:42.307Z,92.81
2023-02-02T23:01:09.552Z,92.94
2023-02-02T23:03:36.948Z,93.04
2023-02-02T23:06:03.869Z,92.82
2023-02-02T23:08:31.240Z,92.86
2023-02-02T23:10:58.340Z,92.52
2023-02-02T23:13:25.231Z,92.56
2023-02-02T23:15:52.171Z,92.20
2023-02-02T23:18:19.749Z,92.05
2023-02-02T23:20:48.795Z,91.51
2023-02-02T23:23:15.907Z,91.21
2023-02-02T23:25:42.715Z,90.75
2023-02-02T23:28:10.615Z,91.02
2023-02-02T23:30:38.118Z,91.02
2023-02-02T23:33:05.071Z,90.78
2023-02-02T23:35:31.856Z,90.84
2023-02-02T23:37:58.759Z,90.00
2023-02-02T23:40:25.924Z,90.13
2023-02-02T23:42:53.017Z,88.65
2023-02-02T23:45:19.850Z,88.22
2023-02-02T23:47:46.765Z,88.19
2023-02-02T23:50:13.628Z,87.20
2023-02-02T23:52:40.718Z,87.47
2023-02-02T23:55:08.202Z,87.23
2023-02-02T23:57:36.668Z,87.12
